Time;durP1;ratioP1;P1;durP2;ratioP2;P2;SDS_P1;SDS_P2;PMS_P1;PMS_P2;Temp;Humidity;BMP_temperature;BMP_pressure;BME280_temperature;BME280_humidity;BME280_pressure;Samples;Min_cycle;Max_cycle;Signal;HPM_P1;HPM_P2
2022/05/20 00:00:40;;;;;;;32.40;29.37;;;;;;;16.88;96.85;101766.78;5071404;28;20458;-46
2022/05/20 00:03:08;;;;;;;41.50;37.57;;;;;;;16.86;96.78;101767.03;5072197;28;20433;-49
2022/05/20 00:05:36;;;;;;;41.70;37.43;;;;;;;16.81;96.52;101766.84;5072093;28;20442;-49
2022/05/20 00:08:04;;;;;;;43.53;35.23;;;;;;;16.79;96.59;101773.47;5071982;28;20430;-47
2022/05/20 00:10:32;;;;;;;46.73;37.87;;;;;;;16.65;96.64;101766.47;5071358;28;20489;-46
2022/05/20 00:13:02;;;;;;;47.93;38.57;;;;;;;16.55;95.99;101765.03;5072102;28;20456;-48
2022/05/20 00:15:30;;;;;;;51.10;37.70;;;;;;;16.54;95.91;101767.94;5072023;28;20481;-45
2022/05/20 00:17:58;;;;;;;52.13;37.57;;;;;;;16.51;95.59;101776.41;5071949;28;20427;-47
2022/05/20 00:20:28;;;;;;;48.83;38.50;;;;;;;16.49;95.50;101767.69;5071039;28;20466;-47
2022/05/20 00:22:56;;;;;;;51.27;40.77;;;;;;;16.46;95.74;101771.66;5071832;28;20434;-46
2022/05/20 00:28:11;;;;;;;40.17;31.63;;;;;;;16.36;95.95;101782.03;5071880;28;20433;-47
2022/05/20 00:30:38;;;;;;;39.80;29.03;;;;;;;16.27;96.12;101782.47;5070789;28;20801;-46
2022/05/20 00:33:06;;;;;;;47.90;34.03;;;;;;;16.25;96.27;101782.66;5071705;28;20414;-46
2022/05/20 00:35:35;;;;;;;44.10;34.27;;;;;;;16.25;96.39;101777.28;5071799;28;20434;-48
2022/05/20 00:38:04;;;;;;;47.47;34.50;;;;;;;16.23;96.33;101776.66;5071970;28;20456;-45
2022/05/20 00:40:32;;;;;;;55.03;37.60;;;;;;;16.20;96.51;101785.16;5071046;28;20473;-43
2022/05/20 00:43:15;;;;;;;65.23;38.27;;;;;;;16.17;96.55;101790.13;5071770;28;20541;-44
2022/05/20 00:45:44;;;;;;;58.07;40.00;;;;;;;16.09;96.94;101801.94;5072044;28;20441;-49
2022/05/20 00:48:12;;;;;;;62.03;40.93;;;;;;;15.99;96.90;101793.44;5071767;28;20442;-49
2022/05/20 00:50:45;;;;;;;62.97;42.20;;;;;;;15.84;97.06;101806.25;5070909;28;20466;-52
2022/05/20 00:53:15;;;;;;;57.17;39.83;;;;;;;15.79;96.72;101801.50;5071660;28;20440;-49
2022/05/20 00:55:43;;;;;;;61.30;41.00;;;;;;;15.67;96.97;101808.50;5071549;28;20423;-49
2022/05/20 00:58:16;;;;;;;55.07;41.73;;;;;;;15.54;97.16;101816.53;5071334;28;20437;-51
2022/05/20 01:00:48;;;;;;;48.37;39.50;;;;;;;15.46;97.29;101816.69;5070698;28;20474;-48
2022/05/20 01:03:19;;;;;;;56.50;39.30;;;;;;;15.38;97.29;101825.75;5071549;28;20426;-47
2022/05/20 01:05:51;;;;;;;62.50;44.50;;;;;;;15.29;97.31;101818.09;5071333;28;20434;-48
2022/05/20 01:08:21;;;;;;;54.00;41.20;;;;;;;15.13;97.42;101821.94;5071454;28;20923;-48
2022/05/20 01:10:49;;;;;;;44.87;38.07;;;;;;;15.10;97.39;101829.56;5070590;28;20464;-47
2022/05/20 01:13:19;;;;;;;42.93;36.63;;;;;;;15.02;97.34;101819.00;5071432;28;20753;-50
2022/05/20 01:15:48;;;;;;;37.80;30.20;;;;;;;14.92;97.48;101828.25;5071493;28;20435;-47
2022/05/20 01:18:16;;;;;;;30.40;27.20;;;;;;;14.86;97.35;101826.38;5071342;28;20426;-48
2022/05/20 01:20:47;;;;;;;26.77;23.97;;;;;;;14.61;96.96;101824.34;5070484;28;20474;-53
2022/05/20 01:23:18;;;;;;;26.60;23.90;;;;;;;14.48;97.01;101821.56;5071219;28;20845;-48
2022/05/20 01:25:49;;;;;;;23.47;20.97;;;;;;;14.39;97.00;101835.13;5071466;28;20449;-51
2022/05/20 01:28:19;;;;;;;20.90;18.80;;;;;;;14.30;96.35;101835.44;5071302;28;20430;-50
2022/05/20 01:30:51;;;;;;;20.37;18.30;;;;;;;14.28;96.82;101835.63;5070330;28;20466;-50
2022/05/20 01:33:23;;;;;;;20.07;17.93;;;;;;;14.23;96.56;101827.34;5071266;28;20431;-47
2022/05/20 01:35:51;;;;;;;22.30;20.00;;;;;;;14.25;96.99;101836.03;5071201;28;20506;-53
2022/05/20 01:38:21;;;;;;;18.70;17.07;;;;;;;14.27;97.34;101833.16;5071404;28;20430;-53
2022/05/20 01:40:52;;;;;;;18.03;16.20;;;;;;;14.29;97.67;101847.19;5070282;28;20474;-53
2022/05/20 01:43:34;;;;;;;21.90;19.70;;;;;;;14.20;97.74;101843.00;5074499;28;20425;-53
2022/05/20 01:46:11;;;;;;;21.60;19.50;;;;;;;14.11;97.77;101847.66;5074682;28;20442;-54
2022/05/20 01:48:49;;;;;;;19.83;17.97;;;;;;;14.14;97.23;101852.66;5074911;28;20476;-53
2022/05/20 01:51:20;;;;;;;20.77;18.80;;;;;;;14.19;97.18;101852.06;5073826;28;20468;-48
2022/05/20 01:53:54;;;;;;;18.50;16.90;;;;;;;14.16;97.71;101864.00;5074667;28;20422;-52
2022/05/20 01:56:27;;;;;;;20.37;18.27;;;;;;;14.17;97.62;101871.03;5074392;28;20434;-52
2022/05/20 01:59:03;;;;;;;21.70;19.80;;;;;;;14.14;97.71;101867.91;5074368;28;20458;-53
2022/05/20 02:01:36;;;;;;;20.87;19.07;;;;;;;14.15;97.72;101872.25;5073636;28;20474;-53
2022/05/20 02:04:10;;;;;;;18.27;16.57;;;;;;;14.02;97.89;101875.63;5074644;28;20434;-53
2022/05/20 02:06:42;;;;;;;17.80;16.20;;;;;;;13.97;97.62;101877.25;5074315;28;20437;-51
2022/05/20 02:09:17;;;;;;;16.17;14.73;;;;;;;13.87;97.91;101893.63;5073745;28;20453;-52
2022/05/20 02:11:47;;;;;;;16.97;15.43;;;;;;;13.75;97.78;101895.16;5073873;28;20442;-53
2022/05/20 02:14:20;;;;;;;17.20;15.50;;;;;;;13.81;97.32;101887.19;5074096;28;20942;-52
2022/05/20 02:16:53;;;;;;;15.60;14.10;;;;;;;13.82;97.41;101901.44;5074219;28;20434;-54
2022/05/20 02:19:27;;;;;;;12.33;11.30;;;;;;;13.64;97.35;101888.44;5073456;28;20426;-50
2022/05/20 02:21:57;;;;;;;9.27;8.67;;;;;;;13.56;97.64;101899.25;5073899;28;20474;-50
2022/05/20 02:24:29;;;;;;;10.83;10.03;;;;;;;13.65;97.87;101889.28;5073962;28;20437;-47
2022/05/20 02:27:01;;;;;;;12.17;11.10;;;;;;;13.77;97.70;101896.63;5073945;28;20430;-53
2022/05/20 02:29:38;;;;;;;11.73;10.83;;;;;;;13.85;97.59;101891.16;5073300;28;20442;-52
2022/05/20 02:32:11;;;;;;;13.17;12.07;;;;;;;13.92;97.42;101888.53;5073317;28;20998;-47
2022/05/20 02:34:38;;;;;;;12.07;10.67;;;;;;;13.96;97.33;101886.28;5073899;28;20449;-53
2022/05/20 02:37:23;;;;;;;10.17;9.40;;;;;;;14.00;96.80;101892.94;5073778;28;20429;-52
2022/05/20 02:39:52;;;;;;;10.00;9.23;;;;;;;14.07;96.80;101891.16;5073234;28;20458;-53
2022/05/20 02:42:20;;;;;;;10.30;9.50;;;;;;;14.13;96.48;101890.38;5073070;28;20482;-49
2022/05/20 02:44:48;;;;;;;9.20;8.33;;;;;;;14.19;96.58;101895.81;5073501;28;20445;-53
2022/05/20 02:47:17;;;;;;;10.30;9.50;;;;;;;14.23;95.79;101893.59;5073634;28;20434;-49
2022/05/20 02:49:45;;;;;;;9.43;8.83;;;;;;;14.24;95.15;101892.56;5073111;28;20468;-54
2022/05/20 02:52:12;;;;;;;8.47;7.87;;;;;;;14.25;95.17;101878.13;5073028;28;20446;-51
2022/05/20 02:54:40;;;;;;;8.57;8.07;;;;;;;14.25;94.47;101881.63;5073241;28;20431;-50
2022/05/20 02:57:09;;;;;;;7.93;7.33;;;;;;;14.30;94.19;101878.38;5073062;28;20435;-50
2022/05/20 03:05:08;;;;;;;8.00;7.20;;;;;;;14.37;93.69;101888.16;5073097;28;20472;-51
2022/05/20 03:07:35;;;;;;;7.43;6.83;;;;;;;14.36;93.07;101886.53;5073392;28;20533;-51
2022/05/20 03:10:03;;;;;;;8.17;7.47;;;;;;;14.40;93.06;101887.78;5071509;28;20503;-51
2022/05/20 03:12:35;;;;;;;7.23;6.93;;;;;;;14.40;92.63;101884.25;5071764;28;20446;-47
2022/05/20 03:15:03;;;;;;;7.73;7.30;;;;;;;14.40;92.18;101885.09;5072862;28;20434;-48
2022/05/20 03:17:31;;;;;;;8.97;8.27;;;;;;;14.42;92.46;101876.88;5072871;28;20437;-47
2022/05/20 03:19:59;;;;;;;8.80;8.00;;;;;;;14.46;92.11;101877.28;5072361;28;20549;-50
2022/05/20 03:22:27;;;;;;;8.77;7.87;;;;;;;14.49;92.05;101868.84;5072574;28;20474;-47
2022/05/20 03:24:55;;;;;;;8.33;7.87;;;;;;;14.48;91.86;101878.78;5072821;28;20807;-48
2022/05/20 03:27:23;;;;;;;8.30;7.60;;;;;;;14.50;91.64;101867.84;5072569;28;20435;-45
2022/05/20 03:29:51;;;;;;;6.93;6.63;;;;;;;14.50;91.19;101879.41;5072161;28;20473;-46
2022/05/20 03:32:19;;;;;;;7.60;7.13;;;;;;;14.49;90.71;101866.16;5071978;28;20469;-46
2022/05/20 03:34:47;;;;;;;7.60;7.20;;;;;;;14.54;91.11;101878.00;5072724;28;20434;-46
2022/05/20 03:37:14;;;;;;;7.70;7.20;;;;;;;14.53;90.63;101873.66;5072615;28;20430;-48
2022/05/20 03:39:42;;;;;;;8.13;7.53;;;;;;;14.59;90.92;101872.03;5072044;28;20462;-50
2022/05/20 03:42:09;;;;;;;7.20;6.70;;;;;;;14.60;90.48;101871.00;5072035;28;20482;-45
2022/05/20 03:44:37;;;;;;;6.13;5.77;;;;;;;14.55;90.05;101876.13;5072303;28;20434;-47
2022/05/20 03:47:06;;;;;;;6.30;6.00;;;;;;;14.56;90.74;101883.16;5072212;28;20440;-47
2022/05/20 03:49:34;;;;;;;6.80;5.83;;;;;;;14.52;90.14;101869.28;5072045;28;20466;-45
2022/05/20 03:52:01;;;;;;;6.40;6.10;;;;;;;14.56;90.13;101873.25;5072054;28;20449;-47
2022/05/20 03:54:32;;;;;;;5.70;5.40;;;;;;;14.55;89.84;101870.75;5072073;28;20441;-48
2022/05/20 03:57:00;;;;;;;6.00;5.60;;;;;;;14.55;90.01;101871.59;5072470;28;20427;-47
2022/05/20 03:59:28;;;;;;;6.47;5.80;;;;;;;14.57;90.30;101872.25;5071541;28;20451;-51
2022/05/20 04:01:58;;;;;;;6.50;6.10;;;;;;;14.56;90.55;101875.94;5071897;28;20497;-47
2022/05/20 04:04:30;;;;;;;5.70;5.40;;;;;;;14.58;90.81;101883.78;5071823;28;20433;-46
2022/05/20 04:06:59;;;;;;;5.33;5.10;;;;;;;14.53;90.97;101894.28;5072100;28;20521;-50
2022/05/20 04:09:27;;;;;;;6.03;5.60;;;;;;;14.56;91.51;101894.72;5071494;28;20435;-45
2022/05/20 04:11:57;;;;;;;5.77;5.47;;;;;;;14.52;91.18;101889.94;5071495;28;20446;-46
2022/05/20 04:14:27;;;;;;;5.97;5.67;;;;;;;14.41;90.72;101891.31;5072186;28;20509;-47
2022/05/20 04:17:01;;;;;;;5.43;5.17;;;;;;;14.44;91.55;101890.06;5071888;28;20481;-49
2022/05/20 04:19:32;;;;;;;5.00;4.80;;;;;;;14.52;91.55;101882.72;5071261;28;20548;-49
2022/05/20 04:22:04;;;;;;;5.03;4.83;;;;;;;14.55;91.32;101892.22;5071496;28;20484;-47
2022/05/20 04:24:33;;;;;;;5.00;4.70;;;;;;;14.43;90.90;101883.88;5071727;28;20433;-47
2022/05/20 04:27:01;;;;;;;5.60;5.20;;;;;;;14.46;91.05;101882.66;5072138;28;20430;-48
2022/05/20 04:29:29;;;;;;;4.83;4.50;;;;;;;14.51;90.78;101883.75;5071346;28;20456;-49
2022/05/20 04:31:57;;;;;;;5.07;4.87;;;;;;;14.59;90.94;101888.13;5071390;28;20467;-48
2022/05/20 04:34:25;;;;;;;5.20;4.90;;;;;;;14.55;90.59;101887.69;5071654;28;20932;-47
2022/05/20 04:36:54;;;;;;;5.23;4.93;;;;;;;14.58;90.65;101881.94;5071593;28;20426;-48
2022/05/20 04:39:22;;;;;;;5.13;4.73;;;;;;;14.59;90.63;101883.59;5071348;28;20436;-47
2022/05/20 04:47:26;;;;;;;5.30;5.10;;;;;;;14.53;91.68;101900.50;5065044;28;20435;-45
2022/05/20 04:49:54;;;;;;;5.77;5.50;;;;;;;14.49;90.11;101899.22;5070909;28;20498;-49
2022/05/20 04:52:24;;;;;;;6.80;6.40;;;;;;;14.40;91.51;101906.56;5071288;28;20446;-47
2022/05/20 04:54:51;;;;;;;6.63;6.23;;;;;;;14.23;90.79;101910.50;5071495;28;20442;-49
2022/05/20 04:57:31;;;;;;;6.60;6.30;;;;;;;14.23;93.59;101917.72;5071453;28;20435;-49
2022/05/20 05:00:02;;;;;;;6.97;6.57;;;;;;;14.19;93.26;101924.50;5070984;28;20493;-47
2022/05/20 05:02:29;;;;;;;6.20;5.60;;;;;;;14.20;92.35;101928.84;5071311;28;20500;-46
2022/05/20 05:04:57;;;;;;;7.00;6.30;;;;;;;14.31;91.54;101928.31;5071364;28;20464;-51
2022/05/20 05:07:27;;;;;;;5.83;5.53;;;;;;;14.37;91.72;101938.31;5071221;28;20936;-49
2022/05/20 05:09:55;;;;;;;6.17;5.80;;;;;;;14.46;91.39;101939.84;5071006;28;20545;-47
2022/05/20 05:12:23;;;;;;;6.27;5.93;;;;;;;14.49;90.18;101944.00;5071000;28;20512;-45
2022/05/20 05:14:52;;;;;;;6.00;5.63;;;;;;;14.49;90.26;101949.38;5071533;28;20441;-49
2022/05/20 05:18:09;;;;;;;6.13;5.67;;;;;;;14.47;89.84;101951.41;5073369;28;20425;-45
2022/05/20 05:20:13;;;;;;;6.17;5.87;;;;;;;14.53;91.14;101950.66;5074490;28;20869;-47
2022/05/20 05:22:42;;;;;;;6.03;5.73;;;;;;;14.57;90.19;101952.78;5075365;28;20473;-46
2022/05/20 05:25:10;;;;;;;6.37;5.90;;;;;;;14.54;89.36;101963.91;5075268;28;20441;-47
2022/05/20 05:27:38;;;;;;;7.47;6.70;;;;;;;14.51;89.56;101958.91;5074933;28;20435;-47
2022/05/20 05:30:08;;;;;;;7.17;6.83;;;;;;;14.36;92.00;101977.78;5074451;28;20985;-46
2022/05/20 05:32:36;;;;;;;7.20;6.87;;;;;;;14.33;92.72;101980.00;5074537;28;20458;-47
2022/05/20 05:35:05;;;;;;;7.37;6.97;;;;;;;14.18;91.79;101973.81;5074755;28;20433;-47
2022/05/20 05:37:34;;;;;;;6.43;6.00;;;;;;;14.06;91.77;101986.06;5074925;28;20430;-46
2022/05/20 05:40:04;;;;;;;5.33;5.03;;;;;;;13.99;91.32;101991.34;5074426;28;20523;-48
2022/05/20 05:42:32;;;;;;;6.63;6.33;;;;;;;14.05;92.68;102004.00;5074538;28;20469;-47
2022/05/20 05:45:00;;;;;;;6.37;6.07;;;;;;;14.06;93.20;102028.97;5074792;28;20871;-46
2022/05/20 05:47:28;;;;;;;7.60;6.90;;;;;;;14.02;93.07;102027.69;5074535;28;20583;-48
2022/05/20 05:49:56;;;;;;;6.87;6.37;;;;;;;14.03;92.64;102024.00;5074060;28;20470;-48
2022/05/20 05:52:24;;;;;;;6.90;6.33;;;;;;;14.18;93.04;102028.31;5074421;28;20442;-48
2022/05/20 05:54:51;;;;;;;7.17;6.63;;;;;;;14.12;92.84;102033.59;5074400;28;20434;-45
2022/05/20 05:57:20;;;;;;;9.23;8.23;;;;;;;14.21;93.69;102022.56;5074537;28;20928;-48
2022/05/20 05:59:48;;;;;;;7.63;7.23;;;;;;;14.16;92.44;102026.81;5073987;28;20559;-49
2022/05/20 06:02:16;;;;;;;7.50;7.00;;;;;;;14.10;91.82;102024.88;5073876;28;20809;-46
2022/05/20 06:04:44;;;;;;;8.03;7.53;;;;;;;14.08;92.28;102017.03;5074516;28;20521;-46
2022/05/20 06:07:12;;;;;;;7.07;6.77;;;;;;;14.03;92.11;102011.41;5074355;28;20430;-49
2022/05/20 06:09:40;;;;;;;6.37;6.00;;;;;;;14.03;91.03;102015.94;5073785;28;20459;-46
2022/05/20 06:12:08;;;;;;;8.03;7.33;;;;;;;13.98;91.87;102021.06;5073884;28;20472;-48
2022/05/20 06:14:37;;;;;;;6.93;6.53;;;;;;;14.00;91.14;102021.69;5074116;28;20804;-46
2022/05/20 06:17:05;;;;;;;6.87;6.47;;;;;;;13.98;90.11;102026.41;5073991;28;20525;-48
2022/05/20 06:19:32;;;;;;;7.50;5.70;;;;;;;14.08;89.77;102021.56;5073745;28;20459;-47
2022/05/20 06:22:00;;;;;;;6.77;6.30;;;;;;;14.17;90.28;102031.16;5073768;28;20449;-48
2022/05/20 06:24:27;;;;;;;6.90;6.40;;;;;;;14.24;88.87;102022.19;5074075;28;20434;-45
2022/05/20 06:26:55;;;;;;;7.67;7.07;;;;;;;14.11;87.51;102026.56;5073798;28;20434;-47
2022/05/20 06:29:22;;;;;;;8.00;7.50;;;;;;;14.17;88.27;102025.81;5073063;28;20438;-47
2022/05/20 06:31:51;;;;;;;7.50;7.00;;;;;;;14.22;88.68;102021.53;5073465;28;20458;-47
2022/05/20 06:34:19;;;;;;;7.13;6.80;;;;;;;14.27;86.64;102023.66;5073920;28;20434;-46
2022/05/20 06:39:50;;;;;;;6.33;6.03;;;;;;;14.36;86.23;102031.44;5073322;28;20819;-45
2022/05/20 06:42:19;;;;;;;8.30;6.73;;;;;;;14.47;85.20;102024.72;5073228;28;20451;-46
2022/05/20 06:44:46;;;;;;;7.27;6.77;;;;;;;14.54;84.69;102022.13;5073542;28;20989;-49
2022/05/20 06:47:15;;;;;;;6.50;5.83;;;;;;;14.64;83.75;102030.66;5065726;22;20496;-46
2022/05/20 06:49:43;;;;;;;6.83;6.43;;;;;;;14.56;83.07;102039.69;5033233;28;20471;-44
2022/05/20 06:52:11;;;;;;;6.40;6.03;;;;;;;14.55;83.63;102037.19;5033174;28;20428;-46
2022/05/20 06:54:58;;;;;;;7.00;6.40;;;;;;;14.47;83.45;102038.16;5033580;28;20432;-49
2022/05/20 06:57:26;;;;;;;7.00;6.57;;;;;;;14.56;83.68;102041.53;5033465;28;20549;-46
2022/05/20 06:59:54;;;;;;;6.77;6.47;;;;;;;14.55;83.67;102042.53;5032922;28;20470;-47
2022/05/20 07:02:23;;;;;;;6.03;5.73;;;;;;;14.45;83.10;102052.78;5033063;28;20447;-48
2022/05/20 07:04:57;;;;;;;6.67;6.37;;;;;;;14.35;82.97;102058.44;5033001;28;20443;-46
2022/05/20 07:07:25;;;;;;;6.70;6.30;;;;;;;14.26;83.56;102052.34;5033238;28;20567;-45
2022/05/20 07:09:53;;;;;;;6.27;5.87;;;;;;;14.35;83.30;102056.59;5032679;28;20456;-45
2022/05/20 07:12:20;;;;;;;6.43;6.13;;;;;;;14.46;82.65;102052.56;5032832;28;20921;-44
2022/05/20 07:14:48;;;;;;;6.90;6.40;;;;;;;14.53;82.97;102037.38;5033108;28;20527;-44
2022/05/20 07:17:17;;;;;;;6.60;6.10;;;;;;;14.50;83.69;102053.03;5032776;28;20463;-47
2022/05/20 07:19:46;;;;;;;7.07;6.77;;;;;;;14.55;85.83;102059.50;5032634;28;20502;-46
2022/05/20 07:22:13;;;;;;;7.90;7.50;;;;;;;14.55;84.83;102043.38;5032722;28;20436;-48
2022/05/20 07:24:43;;;;;;;8.10;7.40;;;;;;;14.65;85.47;102051.97;5032860;28;20475;-47
2022/05/20 07:27:11;;;;;;;6.20;5.90;;;;;;;14.77;84.91;102054.97;5032755;28;20462;-48
2022/05/20 07:29:39;;;;;;;6.60;6.10;;;;;;;14.69;83.53;102052.41;5032349;28;20468;-46
2022/05/20 07:32:08;;;;;;;8.07;7.47;;;;;;;14.82;83.46;102052.53;5032530;28;20454;-49
2022/05/20 07:34:36;;;;;;;6.90;6.50;;;;;;;14.89;83.56;102046.22;5033127;28;20437;-49
2022/05/20 07:37:06;;;;;;;7.50;6.70;;;;;;;14.95;82.18;102041.91;5032817;28;20458;-46
2022/05/20 07:39:33;;;;;;;7.40;7.07;;;;;;;15.07;81.79;102045.72;5031507;28;20825;-43
2022/05/20 07:42:01;;;;;;;6.57;6.27;;;;;;;15.06;80.59;102044.06;5032323;28;20447;-45
2022/05/20 07:44:29;;;;;;;6.10;5.70;;;;;;;14.88;80.24;102049.91;5032399;28;20483;-49
2022/05/20 07:46:56;;;;;;;7.13;6.83;;;;;;;14.80;81.55;102052.72;5032409;28;20464;-44
2022/05/20 07:49:24;;;;;;;7.40;6.97;;;;;;;14.78;81.72;102048.59;5031977;28;20436;-46
2022/05/20 07:51:57;;;;;;;6.93;6.57;;;;;;;14.61;82.75;102033.72;5032137;28;21120;-45
2022/05/20 07:54:28;;;;;;;7.27;6.67;;;;;;;14.72;83.52;102028.72;5032416;28;20432;-46
2022/05/20 07:57:00;;;;;;;7.03;6.60;;;;;;;14.67;81.61;102033.81;5032068;28;20991;-49
2022/05/20 07:59:31;;;;;;;8.70;7.90;;;;;;;14.88;83.44;102033.78;5032049;28;20486;-48
2022/05/20 08:02:02;;;;;;;7.50;6.63;;;;;;;14.87;81.09;102029.44;5031891;28;20424;-48
2022/05/20 08:07:19;;;;;;;7.20;6.80;;;;;;;14.96;80.43;102016.72;5032366;28;20467;-47
2022/05/20 08:09:48;;;;;;;7.70;7.20;;;;;;;15.00;80.53;102025.19;5031667;28;20470;-45
2022/05/20 08:12:16;;;;;;;7.67;7.20;;;;;;;15.56;82.33;102018.78;5031938;28;20432;-48
2022/05/20 08:14:47;;;;;;;7.37;6.93;;;;;;;16.03;79.96;102013.47;5031983;28;20522;-46
2022/05/20 08:17:16;;;;;;;7.07;6.67;;;;;;;16.61;78.63;102013.81;5031970;28;20452;-46
2022/05/20 08:19:43;;;;;;;6.30;6.00;;;;;;;17.15;75.26;102019.00;5031248;28;20463;-45
2022/05/20 08:22:11;;;;;;;6.20;5.90;;;;;;;17.11;67.94;102012.41;5031669;28;20428;-45
2022/05/20 08:24:39;;;;;;;6.57;6.20;;;;;;;17.52;67.86;102014.81;5031844;28;20475;-45
2022/05/20 08:27:08;;;;;;;6.40;6.00;;;;;;;17.95;69.58;102015.13;5031610;28;20456;-47
2022/05/20 08:29:35;;;;;;;10.83;6.50;;;;;;;18.03;65.56;102026.50;5031238;28;20486;-45
2022/05/20 08:32:03;;;;;;;6.83;6.47;;;;;;;17.93;65.97;102020.72;5031510;28;20424;-45
2022/05/20 08:34:31;;;;;;;6.47;6.27;;;;;;;17.80;66.56;102028.06;5031526;28;20428;-45
2022/05/20 08:37:03;;;;;;;7.33;6.83;;;;;;;18.04;66.37;102013.84;5031848;28;20486;-44
2022/05/20 08:39:31;;;;;;;7.17;6.70;;;;;;;17.99;64.76;102008.22;5031526;28;20466;-44
2022/05/20 08:41:58;;;;;;;7.13;6.73;;;;;;;18.52;63.30;102006.91;5031505;28;20431;-44
2022/05/20 08:44:27;;;;;;;7.13;6.73;;;;;;;18.48;61.28;102008.38;5031665;28;20478;-46
2022/05/20 08:47:07;;;;;;;7.90;7.50;;;;;;;18.69;61.91;101996.44;5031411;28;20463;-44
2022/05/20 08:49:37;;;;;;;8.07;7.67;;;;;;;18.81;59.38;101993.84;5031288;28;20547;-46
2022/05/20 08:52:05;;;;;;;7.30;7.00;;;;;;;18.95;59.26;101998.91;5034851;28;20432;-51
2022/05/20 08:54:33;;;;;;;7.60;7.20;;;;;;;19.22;60.39;101983.25;5035694;28;20439;-44
2022/05/20 08:57:23;;;;;;;7.93;7.47;;;;;;;19.20;57.80;101980.75;5035468;28;20816;-47
2022/05/20 08:59:52;;;;;;;7.83;7.43;;;;;;;19.10;58.20;101985.03;5035290;28;20798;-45
2022/05/20 09:02:20;;;;;;;7.60;7.20;;;;;;;19.13;56.12;101979.19;5035377;28;20447;-45
2022/05/20 09:04:49;;;;;;;7.00;6.70;;;;;;;19.07;57.53;101970.09;5035301;28;20502;-44
2022/05/20 09:07:18;;;;;;;7.40;7.00;;;;;;;19.10;57.06;101977.75;5035408;28;20454;-45
2022/05/20 09:09:49;;;;;;;8.00;7.33;;;;;;;19.35;59.59;101977.72;5034794;28;20459;-46
2022/05/20 09:12:31;;;;;;;6.97;6.50;;;;;;;19.70;55.44;101975.25;5035329;28;20518;-44
2022/05/20 09:18:03;;;;;;;6.60;6.10;;;;;;;20.20;56.86;101965.00;5035171;28;20774;-45
2022/05/20 09:20:31;;;;;;;6.83;6.43;;;;;;;20.17;56.43;101971.72;5034609;28;20467;-47
2022/05/20 09:23:02;;;;;;;6.00;5.70;;;;;;;20.72;56.82;101961.53;5035208;28;20431;-49
2022/05/20 09:25:32;;;;;;;6.17;5.87;;;;;;;21.51;55.07;101954.66;5034964;28;21016;-45
2022/05/20 09:28:23;;;;;;;6.77;5.27;;;;;;;21.75;51.93;101958.94;5034939;28;20442;-45
2022/05/20 09:31:02;;;;;;;5.57;5.27;;;;;;;21.62;53.08;101953.81;5034214;28;20458;-44
2022/05/20 09:33:32;;;;;;;5.83;5.53;;;;;;;21.39;50.16;101957.38;5034860;28;21173;-45
2022/05/20 09:36:02;;;;;;;6.57;6.07;;;;;;;21.07;51.82;101953.38;5034854;28;20473;-45
2022/05/20 09:38:34;;;;;;;5.87;5.57;;;;;;;21.51;52.03;101954.66;5034939;28;20428;-47
2022/05/20 09:41:11;;;;;;;5.70;5.30;;;;;;;21.29;47.93;101959.91;5034028;28;20463;-45
2022/05/20 09:43:41;;;;;;;4.93;4.73;;;;;;;21.79;49.04;101953.88;5034712;28;20433;-44
2022/05/20 09:46:29;;;;;;;5.93;5.53;;;;;;;21.19;48.74;101956.13;5034374;28;20479;-45
2022/05/20 09:49:04;;;;;;;6.10;5.60;;;;;;;21.59;51.04;101950.75;5034697;28;20793;-45
2022/05/20 09:51:38;;;;;;;4.90;4.60;;;;;;;21.26;47.96;101952.22;5033840;28;20463;-44
2022/05/20 09:54:16;;;;;;;5.47;5.20;;;;;;;21.41;47.89;101930.81;5034692;28;20430;-45
2022/05/20 09:56:46;;;;;;;7.33;5.00;;;;;;;21.30;49.15;101934.41;5034555;28;20455;-44
2022/05/20 09:59:30;;;;;;;5.57;5.27;;;;;;;22.08;49.15;101936.53;5034017;28;20439;-48
2022/05/20 10:02:04;;;;;;;4.60;4.40;;;;;;;22.32;47.49;101923.63;5033342;28;20436;-47
2022/05/20 10:04:47;;;;;;;4.10;3.90;;;;;;;22.30;46.34;101933.94;5034637;28;20481;-44
2022/05/20 10:07:27;;;;;;;5.93;5.50;;;;;;;22.34;48.50;101935.91;5034281;28;20454;-44
2022/05/20 10:10:04;;;;;;;5.70;5.40;;;;;;;22.50;46.44;101940.53;5033805;28;20466;-44
2022/05/20 10:12:36;;;;;;;4.80;4.50;;;;;;;22.77;47.92;101931.75;5033939;28;20432;-44
2022/05/20 10:15:14;;;;;;;4.43;4.13;;;;;;;22.75;47.34;101937.44;5034380;28;20522;-51
2022/05/20 10:17:55;;;;;;;4.23;3.87;;;;;;;23.10;46.92;101935.25;5034035;28;20809;-48
2022/05/20 10:20:29;;;;;;;6.00;4.93;;;;;;;23.55;45.09;101932.34;5033423;28;20459;-49
2022/05/20 10:23:07;;;;;;;4.40;4.10;;;;;;;23.28;45.36;101946.91;5034187;28;20518;-49
2022/05/20 10:25:42;;;;;;;4.30;4.00;;;;;;;23.40;44.58;101939.47;5033994;28;20502;-49
2022/05/20 10:34:07;;;;;;;4.13;3.60;;;;;;;23.72;44.86;101925.97;5033940;28;20471;-52
2022/05/20 10:36:45;;;;;;;5.57;4.10;;;;;;;23.81;42.16;101919.81;5033990;28;20444;-46
2022/05/20 10:39:26;;;;;;;4.63;4.33;;;;;;;23.38;43.34;101920.66;5033254;28;20427;-49
2022/05/20 10:42:24;;;;;;;4.77;4.40;;;;;;;22.99;43.29;101911.69;5033584;28;20431;-46
2022/05/20 10:48:38;;;;;;;4.23;3.93;;;;;;;22.48;45.63;101911.97;5033441;28;20436;-47
2022/05/20 10:51:24;;;;;;;3.50;3.30;;;;;;;23.12;43.81;101910.50;5032717;28;20459;-46
2022/05/20 10:54:03;;;;;;;4.33;3.90;;;;;;;23.54;43.24;101908.91;5033431;28;20436;-50
2022/05/20 10:56:49;;;;;;;3.80;3.60;;;;;;;23.73;41.82;101903.94;5033655;28;20452;-45
2022/05/20 10:59:36;;;;;;;4.10;3.70;;;;;;;23.06;43.32;101903.34;5032809;28;20431;-50
2022/05/20 11:02:20;;;;;;;5.10;4.00;;;;;;;22.53;44.08;101895.72;5033110;28;20427;-47
2022/05/20 11:05:18;;;;;;;4.73;4.53;;;;;;;22.71;45.19;101892.78;5033394;28;20440;-48
2022/05/20 11:08:03;;;;;;;5.10;4.00;;;;;;;22.86;44.05;101884.03;5033371;28;20431;-50
2022/05/20 11:10:53;;;;;;;4.23;3.93;;;;;;;23.38;42.65;101885.28;5032373;28;20463;-49
2022/05/20 11:13:37;;;;;;;3.43;3.10;;;;;;;23.73;41.67;101882.16;5032910;28;20477;-46
2022/05/20 11:16:22;;;;;;;4.30;4.00;;;;;;;23.72;41.75;101882.41;5032587;28;20458;-44
2022/05/20 11:19:07;;;;;;;4.57;3.97;;;;;;;22.63;42.47;101881.47;5032961;28;20424;-47
2022/05/20 11:21:50;;;;;;;6.20;3.83;;;;;;;22.50;44.14;101883.47;5032546;28;20436;-47
2022/05/20 11:24:59;;;;;;;3.97;3.47;;;;;;;22.67;45.13;101885.38;5032880;28;20427;-47
2022/05/20 11:27:40;;;;;;;4.13;3.70;;;;;;;22.81;42.59;101875.78;4952151;29;21034;-49
2022/05/20 11:30:19;;;;;;;4.07;3.67;;;;;;;23.15;45.02;101882.78;5026874;28;20467;-45
2022/05/20 11:33:11;;;;;;;4.40;4.10;;;;;;;22.53;43.83;101880.25;5032631;28;20442;-49
2022/05/20 11:36:08;;;;;;;6.47;5.13;;;;;;;22.95;44.67;101869.75;5032512;28;20935;-43
2022/05/20 11:39:01;;;;;;;4.33;4.13;;;;;;;22.87;44.38;101874.78;5032580;28;20427;-50
2022/05/20 11:41:42;;;;;;;4.37;4.03;;;;;;;22.23;43.99;101863.44;5031807;28;20829;-46
2022/05/20 11:44:23;;;;;;;3.87;3.50;;;;;;;21.68;45.77;101857.84;5032357;28;20427;-49
2022/05/20 11:47:12;;;;;;;4.20;3.83;;;;;;;21.29;48.23;101856.78;5032260;28;20481;-49
2022/05/20 11:49:55;;;;;;;3.97;3.70;;;;;;;21.37;47.72;101848.28;5031796;28;20467;-50
2022/05/20 11:52:49;;;;;;;5.70;4.47;;;;;;;21.27;48.67;101853.47;5031609;28;20458;-47
2022/05/20 11:55:20;;;;;;;3.87;3.57;;;;;;;21.55;47.75;101841.81;5028788;28;20457;-51
2022/05/20 11:57:53;;;;;;;3.93;3.73;;;;;;;21.49;46.39;101845.50;5032338;28;20435;-49
2022/05/20 12:00:22;;;;;;;5.80;4.80;;;;;;;22.08;47.27;101837.91;5031431;28;20830;-45
2022/05/20 12:02:55;;;;;;;3.50;3.20;;;;;;;22.34;46.44;101845.44;5032104;28;20707;-45
2022/05/20 12:05:26;;;;;;;3.73;3.50;;;;;;;22.91;44.72;101835.94;5032047;28;20475;-49
2022/05/20 12:07:54;;;;;;;3.43;3.23;;;;;;;23.12;43.82;101834.31;5032173;28;20793;-49
2022/05/20 12:10:47;;;;;;;3.83;3.53;;;;;;;23.41;43.56;101838.53;5031431;28;20455;-50
2022/05/20 12:13:20;;;;;;;4.30;4.00;;;;;;;23.10;44.05;101826.41;5031862;28;20432;-46
2022/05/20 12:15:50;;;;;;;5.27;3.77;;;;;;;23.61;42.95;101818.84;5032257;28;20455;-47